Time;durP1;ratioP1;P1;durP2;ratioP2;P2;SDS_P1;SDS_P2;PMS_P1;PMS_P2;Temp;Humidity;BMP_temperature;BMP_pressure;BME280_temperature;BME280_humidity;BME280_pressure;Samples;Min_cycle;Max_cycle;Signal;HPM_P1;HPM_P2
2023/07/05 00:00:28;;;;;;;9.80;3.65;;;;;;;;;;4791293;29;20473;-90
2023/07/05 00:02:54;;;;;;;14.77;3.78;;;;;;;;;;4791586;29;20051;-89
2023/07/05 00:05:20;;;;;;;9.75;3.63;;;;;;;;;;4776141;29;20058;-88
2023/07/05 00:07:46;;;;;;;7.65;3.97;;;14.90;95.20;;;;;;4806244;29;20142;-89
2023/07/05 00:10:12;;;;;;;10.43;3.75;;;;;;;;;;4806218;29;20061;-89
2023/07/05 00:12:38;;;;;;;17.23;4.95;;;;;;;;;;4791410;29;20404;-88
2023/07/05 00:15:05;;;;;;;5.57;3.97;;;;;;;;;;4807069;29;20051;-91
2023/07/05 00:17:35;;;;;;;8.38;4.50;;;15.00;94.50;;;;;;4790981;29;20522;-88
2023/07/05 00:20:02;;;;;;;8.35;3.58;;;15.10;94.40;;;;;;4792128;29;20054;-90
2023/07/05 00:22:28;;;;;;;7.10;4.35;;;;;;;;;;4793491;29;20141;-90
2023/07/05 00:24:55;;;;;;;12.85;4.32;;;;;;;;;;4784749;29;20106;-90
2023/07/05 00:27:22;;;;;;;10.05;3.55;;;;;;;;;;4776511;29;20111;-90
2023/07/05 00:29:49;;;;;;;9.95;4.15;;;15.10;95.50;;;;;;4776043;29;20050;-88
2023/07/05 00:32:15;;;;;;;5.20;4.38;;;;;;;;;;4790838;29;20078;-89
2023/07/05 00:34:41;;;;;;;9.85;5.30;;;;;;;;;;4791073;29;20063;-88
2023/07/05 00:37:07;;;;;;;8.13;4.25;;;;;;;;;;4807053;29;20066;-88
2023/07/05 00:39:33;;;;;;;12.05;5.05;;;;;;;;;;4806960;29;20139;-87
2023/07/05 00:41:59;;;;;;;11.88;5.43;;;;;;;;;;4775602;29;20118;-87
2023/07/05 00:44:27;;;;;;;8.48;4.50;;;;;;;;;;4775901;29;20468;-88
2023/07/05 00:47:07;;;;;;;9.30;4.82;;;15.20;96.90;;;;;;4790219;29;20051;-88
2023/07/05 00:49:34;;;;;;;11.88;5.00;;;;;;;;;;4790241;29;20051;-88
2023/07/05 00:52:00;;;;;;;10.45;5.03;;;;;;;;;;4790660;29;20493;-90
2023/07/05 00:54:28;;;;;;;9.60;4.60;;;;;;;;;;4775815;29;20105;-90
2023/07/05 00:57:07;;;;;;;7.82;4.63;;;15.10;97.40;;;;;;4790383;29;20145;-89
2023/07/05 00:59:42;;;;;;;9.15;5.13;;;15.10;97.60;;;;;;4790087;29;20115;-88
2023/07/05 01:02:08;;;;;;;5.95;4.80;;;;;;;;;;4789895;29;20050;-89
2023/07/05 01:04:34;;;;;;;9.13;4.22;;;;;;;;;;4760253;29;20087;-90
2023/07/05 01:07:01;;;;;;;16.42;5.28;;;;;;;;;;4789790;29;20097;-89
2023/07/05 01:09:27;;;;;;;7.20;3.97;;;;;;;;;;4774656;29;20061;-89
2023/07/05 01:12:00;;;;;;;5.53;4.75;;;;;;;;;;4775095;29;20050;-88
2023/07/05 01:14:44;;;;;;;9.52;4.65;;;;;;;;;;4790092;29;20050;-89
2023/07/05 01:17:34;;;;;;;9.50;5.00;;;14.90;99.00;;;;;;4775167;29;20056;-89
2023/07/05 01:20:28;;;;;;;10.60;5.65;;;14.80;99.00;;;;;;4774579;29;20050;-89
2023/07/05 01:23:12;;;;;;;7.50;5.07;;;;;;;;;;4789673;29;20086;-87
2023/07/05 01:25:45;;;;;;;7.68;5.18;;;;;;;;;;4790139;29;20119;-89
2023/07/05 01:28:18;;;;;;;12.40;5.70;;;;;;;;;;4774889;29;20475;-88
2023/07/05 01:31:02;;;;;;;12.48;5.32;;;;;;;;;;4790533;29;20058;-89
2023/07/05 01:33:35;;;;;;;11.07;4.80;;;;;;;;;;4790565;29;20051;-90
2023/07/05 01:36:01;;;;;;;14.73;6.07;;;;;;;;;;4789863;29;20492;-88
2023/07/05 01:38:27;;;;;;;6.38;4.88;;;;;;;;;;4790139;29;20161;-90
2023/07/05 01:40:58;;;;;;;15.48;4.90;;;14.80;99.50;;;;;;4774832;29;20086;-91
2023/07/05 01:43:26;;;;;;;7.40;5.53;;;;;;;;;;4775158;29;20057;-91
2023/07/05 01:46:30;;;;;;;14.65;5.15;;;;;;;;;;4789737;29;20051;-91
2023/07/05 01:49:15;;;;;;;13.68;5.95;;;15.00;99.90;;;;;;4735219;30;20052;-93
2023/07/05 01:51:44;;;;;;;6.07;5.30;;;;;;;;;;4735231;30;20052;-93
2023/07/05 01:54:18;;;;;;;14.77;5.80;;;15.00;99.90;;;;;;4768788;29;20063;-89
2023/07/05 01:56:50;;;;;;;15.65;5.82;;;;;;;;;;4789770;29;20558;-89
2023/07/05 01:59:21;;;;;;;10.52;6.60;;;15.00;99.90;;;;;;4774514;29;20504;-89
2023/07/05 02:01:47;;;;;;;13.48;6.35;;;;;;;;;;4789628;29;20098;-89
2023/07/05 02:04:14;;;;;;;10.80;7.22;;;;;;;;;;4789565;29;20374;-89
2023/07/05 02:06:41;;;;;;;10.60;6.72;;;14.70;99.90;;;;;;4789346;29;20580;-90
2023/07/05 02:09:07;;;;;;;10.63;6.35;;;;;;;;;;4789082;29;20089;-87
2023/07/05 02:11:33;;;;;;;11.68;6.30;;;;;;;;;;4789075;29;20090;-87
2023/07/05 02:13:59;;;;;;;12.05;6.85;;;;;;;;;;4774042;29;20096;-89
2023/07/05 02:16:25;;;;;;;10.27;7.30;;;;;;;;;;4788925;29;20051;-86
2023/07/05 02:18:51;;;;;;;9.00;6.82;;;;;;;;;;4788203;29;20050;-86
2023/07/05 02:21:18;;;;;;;13.50;6.53;;;;;;;;;;4758593;29;20054;-87
2023/07/05 02:23:44;;;;;;;10.65;8.15;;;;;;;;;;4789008;29;20047;-85
2023/07/05 02:26:10;;;;;;;14.43;7.57;;;;;;;;;;4773587;29;20102;-85
2023/07/05 02:28:36;;;;;;;11.50;6.75;;;;;;;;;;4788714;29;20047;-85
2023/07/05 02:31:11;;;;;;;12.55;7.82;;;14.70;99.90;;;;;;4788661;29;20133;-84
2023/07/05 02:33:37;;;;;;;12.85;7.47;;;;;;;;;;4774028;29;20051;-84
2023/07/05 02:36:11;;;;;;;12.13;7.80;;;14.70;99.90;;;;;;4788880;29;20496;-85
2023/07/05 02:38:37;;;;;;;14.38;6.55;;;;;;;;;;4788503;29;20062;-86
2023/07/05 02:41:03;;;;;;;13.40;7.68;;;;;;;;;;4773888;29;20054;-84
2023/07/05 02:43:30;;;;;;;12.57;7.68;;;;;;;;;;4773749;29;20201;-87
2023/07/05 02:45:56;;;;;;;15.65;8.77;;;;;;;;;;4773590;29;20050;-85
2023/07/05 02:48:22;;;;;;;12.85;8.75;;;;;;;;;;4773688;29;20102;-87
2023/07/05 02:50:48;;;;;;;15.40;8.50;;;;;;;;;;4788306;29;20136;-87
2023/07/05 02:53:14;;;;;;;17.00;8.15;;;;;;;;;;4788382;29;20108;-86
2023/07/05 02:55:41;;;;;;;14.65;8.10;;;;;;;;;;4773494;29;20130;-87
2023/07/05 02:58:07;;;;;;;12.20;8.50;;;;;;;;;;4788502;29;20088;-84
2023/07/05 03:00:34;;;;;;;13.50;8.15;;;;;;;;;;4773393;29;20142;-83
2023/07/05 03:03:00;;;;;;;12.35;9.35;;;;;;;;;;4773867;29;20505;-85
2023/07/05 03:05:26;;;;;;;18.50;8.77;;;;;;;;;;4773244;29;20062;-87
2023/07/05 03:07:53;;;;;;;18.38;8.48;;;;;;;;;;4788303;29;20528;-84
2023/07/05 03:10:19;;;;;;;11.18;8.45;;;;;;;;;;4773486;29;20050;-83
2023/07/05 03:12:45;;;;;;;18.13;8.25;;;;;;;;;;4788413;29;20133;-84
2023/07/05 03:15:11;;;;;;;14.57;8.68;;;;;;;;;;4788135;29;20496;-86
2023/07/05 03:17:38;;;;;;;12.05;8.90;;;14.60;99.90;;;;;;4788199;29;20472;-86
2023/07/05 03:20:04;;;;;;;12.82;9.68;;;;;;;;;;4773351;29;20047;-83
2023/07/05 03:22:30;;;;;;;14.23;9.68;;;;;;;;;;4773218;29;20050;-84
2023/07/05 03:24:56;;;;;;;16.90;10.20;;;;;;;;;;4773312;29;20061;-86
2023/07/05 03:27:22;;;;;;;16.98;9.85;;;;;;;;;;4773462;29;20103;-84
2023/07/05 03:29:48;;;;;;;15.27;9.65;;;;;;;;;;4773327;29;20431;-84
2023/07/05 03:32:14;;;;;;;14.13;9.43;;;;;;;;;;4790927;29;20207;-84
2023/07/05 03:34:41;;;;;;;15.57;9.32;;;;;;;;;;4791375;29;20051;-84
2023/07/05 03:37:07;;;;;;;15.65;9.20;;;;;;;;;;4791643;29;20069;-85
2023/07/05 03:39:32;;;;;;;14.23;9.43;;;14.30;99.90;;;;;;4776546;29;20133;-85
2023/07/05 03:41:58;;;;;;;17.52;8.90;;;;;;;;;;4776546;29;20531;-85
2023/07/05 03:44:24;;;;;;;12.57;9.05;;;;;;;;;;4791204;29;20081;-84
2023/07/05 03:46:51;;;;;;;15.18;8.73;;;;;;;;;;4776566;29;20065;-86
2023/07/05 03:49:17;;;;;;;12.65;8.48;;;14.80;99.90;;;;;;4790858;29;20051;-83
2023/07/05 03:51:44;;;;;;;14.05;8.48;;;;;;;;;;4775698;29;20067;-85
2023/07/05 03:54:10;;;;;;;11.73;8.77;;;;;;;;;;4790713;29;20078;-84
2023/07/05 03:56:36;;;;;;;13.15;8.30;;;;;;;;;;4775842;29;20050;-84
2023/07/05 03:59:03;;;;;;;10.43;8.13;;;;;;;;;;4791085;29;20046;-84
2023/07/05 04:01:30;;;;;;;13.60;8.13;;;14.50;99.90;;;;;;4790543;29;20057;-84
2023/07/05 04:04:00;;;;;;;17.67;9.50;;;;;;;;;;4790677;29;20480;-84
2023/07/05 04:06:28;;;;;;;10.23;8.90;;;14.70;99.90;;;;;;4772692;30;20492;-85
2023/07/05 04:08:55;;;;;;;14.32;8.70;;;;;;;;;;4757952;30;20469;-85
2023/07/05 04:11:21;;;;;;;11.15;8.68;;;;;;;;;;4758149;29;20590;-84
2023/07/05 04:13:48;;;;;;;14.18;9.68;;;;;;;;;;4772887;30;20086;-84
2023/07/05 04:16:17;;;;;;;13.98;8.60;;;14.70;99.90;;;;;;4772812;30;20409;-84
2023/07/05 04:18:44;;;;;;;12.43;9.13;;;14.80;99.90;;;;;;4757982;30;20051;-84
2023/07/05 04:21:10;;;;;;;14.25;8.88;;;;;;;;;;4772570;30;20573;-84
2023/07/05 04:23:37;;;;;;;13.98;8.10;;;;;;;;;;4788706;29;20457;-84
2023/07/05 04:26:14;;;;;;;8.15;7.13;;;14.90;99.90;;;;;;4772678;30;20113;-84
2023/07/05 04:28:41;;;;;;;13.35;7.88;;;15.00;99.90;;;;;;4772666;30;20051;-84
2023/07/05 04:31:09;;;;;;;12.30;8.60;;;15.10;99.90;;;;;;4772323;30;20330;-84
2023/07/05 04:33:35;;;;;;;11.23;7.40;;;;;;;;;;4772476;30;20047;-84
2023/07/05 04:36:02;;;;;;;10.55;7.65;;;;;;;;;;4772418;30;20055;-84
2023/07/05 04:38:28;;;;;;;11.75;7.57;;;;;;;;;;4772624;30;20055;-84
2023/07/05 04:40:56;;;;;;;10.43;8.45;;;;;;;;;;4788589;29;20103;-84
2023/07/05 04:43:22;;;;;;;12.13;7.10;;;;;;;;;;4756863;30;20134;-85
2023/07/05 04:45:49;;;;;;;16.77;8.38;;;;;;;;;;4788093;29;20058;-85
2023/07/05 04:48:16;;;;;;;12.73;7.28;;;;;;;;;;4772189;30;20048;-85
2023/07/05 04:50:42;;;;;;;9.30;6.43;;;;;;;;;;4756996;30;20512;-85
2023/07/05 04:53:08;;;;;;;8.60;6.80;;;;;;;;;;4772536;29;20481;-85
2023/07/05 04:55:34;;;;;;;10.80;6.45;;;;;;;;;;4773327;29;20108;-85
2023/07/05 04:58:03;;;;;;;6.88;5.95;;;;;;;;;;4758961;30;20044;-85
2023/07/05 05:00:30;;;;;;;10.02;5.95;;;;;;;;;;4744170;30;20513;-85
2023/07/05 05:02:56;;;;;;;7.00;5.53;;;;;;;;;;4758512;30;20515;-84
2023/07/05 05:05:22;;;;;;;13.60;5.80;;;;;;;;;;4799501;29;20063;-85
2023/07/05 05:07:48;;;;;;;5.85;4.32;;;;;;;;;;4806796;29;20055;-85
2023/07/05 05:10:14;;;;;;;7.93;4.38;;;;;;;;;;4806867;29;20046;-85
2023/07/05 05:12:41;;;;;;;5.45;3.92;;;;;;;;;;4791412;29;20050;-85
2023/07/05 05:15:07;;;;;;;6.50;4.32;;;;;;;;;;4792175;29;20046;-85
2023/07/05 05:17:33;;;;;;;7.07;3.60;;;;;;;;;;4778135;29;20130;-85
2023/07/05 05:19:59;;;;;;;7.78;3.65;;;;;;;;;;4806833;29;20058;-85
2023/07/05 05:22:25;;;;;;;5.50;3.38;;;;;;;;;;4790552;29;20094;-85
2023/07/05 05:24:51;;;;;;;6.85;3.67;;;;;;;;;;4775583;29;20078;-86
2023/07/05 05:27:17;;;;;;;4.47;3.15;;;;;;;;;;4807074;29;20117;-85
2023/07/05 05:29:43;;;;;;;5.05;3.53;;;;;;;;;;4789434;29;20104;-86
2023/07/05 05:32:10;;;;;;;3.83;3.38;;;;;;;;;;4760301;29;20416;-86
2023/07/05 05:34:36;;;;;;;6.93;3.38;;;;;;;;;;4789773;29;20050;-86
2023/07/05 05:37:02;;;;;;;5.63;4.10;;;;;;;;;;4789923;29;20453;-86
2023/07/05 05:39:28;;;;;;;4.05;2.85;;;;;;;;;;4789514;29;20142;-86
2023/07/05 05:41:54;;;;;;;4.95;3.60;;;;;;;;;;4774676;29;20108;-86
2023/07/05 05:44:20;;;;;;;7.63;4.22;;;;;;;;;;4789598;29;20047;-85
2023/07/05 05:46:46;;;;;;;4.63;3.75;;;;;;;;;;4789140;29;20050;-86
2023/07/05 05:49:12;;;;;;;8.52;4.95;;;;;;;;;;4774291;29;20500;-86
2023/07/05 05:51:39;;;;;;;10.27;4.65;;;;;;;;;;4788986;29;20539;-85
2023/07/05 05:54:05;;;;;;;5.07;3.88;;;;;;;;;;4805184;29;20056;-85
2023/07/05 05:56:31;;;;;;;4.72;3.60;;;;;;;;;;4788744;29;20046;-86
2023/07/05 05:58:57;;;;;;;5.13;3.67;;;;;;;;;;4774195;29;20089;-85
2023/07/05 06:01:23;;;;;;;7.53;4.05;;;;;;;;;;4789708;29;20419;-87
2023/07/05 06:03:49;;;;;;;5.80;4.22;;;;;;;;;;4774384;29;20054;-90
2023/07/05 06:06:15;;;;;;;5.25;4.13;;;;;;;;;;4805279;29;20063;-87
2023/07/05 06:08:41;;;;;;;5.30;4.10;;;;;;;;;;4774299;29;20094;-87
2023/07/05 06:11:07;;;;;;;6.55;3.83;;;;;;;;;;4805235;29;20093;-89
2023/07/05 06:13:33;;;;;;;3.92;3.05;;;;;;;;;;4789404;29;20095;-88
2023/07/05 06:16:01;;;;;;;7.18;4.20;;;;;;;;;;4789436;29;20141;-87
2023/07/05 06:18:27;;;;;;;5.22;3.47;;;;;;;;;;4789028;29;20062;-85
2023/07/05 06:20:53;;;;;;;6.32;3.15;;;;;;;;;;4804980;29;20104;-87
2023/07/05 06:23:20;;;;;;;5.35;4.13;;;;;;;;;;4789230;29;20051;-88
2023/07/05 06:25:47;;;;;;;4.90;3.58;;;;;;;;;;4789394;29;20051;-91
2023/07/05 06:28:14;;;;;;;5.72;3.30;;;;;;;;;;4804694;29;20066;-92
2023/07/05 06:30:40;;;;;;;11.88;3.78;;;;;;;;;;4804989;29;20058;-90
2023/07/05 06:33:06;;;;;;;5.82;3.47;;;;;;;;;;4790212;29;20599;-92
2023/07/05 06:35:32;;;;;;;4.85;3.40;;;;;;;;;;4789730;29;20166;-90
2023/07/05 06:37:58;;;;;;;3.97;3.13;;;;;;;;;;4788597;29;20047;-85
2023/07/05 06:40:24;;;;;;;3.92;3.40;;;;;;;;;;4758874;29;20137;-85
2023/07/05 06:42:50;;;;;;;5.18;3.42;;;;;;;;;;4788759;29;20053;-85
2023/07/05 06:45:17;;;;;;;4.97;3.30;;;;;;;;;;4773785;29;20046;-85
2023/07/05 06:47:45;;;;;;;12.55;3.58;;;;;;;;;;4758955;29;20053;-85
2023/07/05 06:50:11;;;;;;;4.55;3.30;;;;;;;;;;4788092;29;20484;-85
2023/07/05 06:52:38;;;;;;;10.63;3.05;;;;;;;;;;4788642;29;20115;-85
2023/07/05 06:55:05;;;;;;;4.68;3.42;;;;;;;;;;4773516;29;20057;-85
2023/07/05 06:57:31;;;;;;;5.18;2.60;;;;;;;;;;4788628;29;20062;-85
2023/07/05 06:59:57;;;;;;;3.95;2.58;;;;;;;;;;4773570;29;20054;-85
2023/07/05 07:02:23;;;;;;;3.20;2.58;;;;;;;;;;4788471;29;20055;-85
2023/07/05 07:04:49;;;;;;;5.63;3.05;;;;;;;;;;4788236;29;20058;-86
2023/07/05 07:07:15;;;;;;;5.47;2.80;;;;;;;;;;4790918;29;20435;-85
2023/07/05 07:09:41;;;;;;;3.55;2.60;;;;;;;;;;4776664;29;20054;-85
2023/07/05 07:12:08;;;;;;;5.97;3.22;;;;;;;;;;4776829;29;20050;-85
2023/07/05 07:14:35;;;;;;;5.50;2.45;;;;;;;;;;4776933;29;20073;-85
2023/07/05 07:17:01;;;;;;;6.07;2.80;;;;;;;;;;4792719;29;20058;-85
2023/07/05 07:19:27;;;;;;;4.72;2.25;;;;;;;;;;4777568;29;20062;-85
2023/07/05 07:21:53;;;;;;;3.63;2.28;;;;;;;;;;4763073;29;20054;-84
2023/07/05 07:24:19;;;;;;;7.18;2.50;;;;;;;;;;4777626;29;20047;-83
2023/07/05 07:26:45;;;;;;;5.88;3.00;;;;;;;;;;4792507;29;20050;-83
2023/07/05 07:29:12;;;;;;;3.78;2.20;;;;;;;;;;4777538;29;20051;-83
2023/07/05 07:31:38;;;;;;;2.85;2.50;;;15.30;90.30;;;;;;4792369;29;20051;-83
2023/07/05 07:34:07;;;;;;;3.20;2.35;;;;;;;;;;4762811;29;20047;-83
2023/07/05 07:36:35;;;;;;;7.38;2.83;;;15.40;91.00;;;;;;4793097;29;20130;-84
2023/07/05 07:39:02;;;;;;;4.28;2.65;;;;;;;;;;4792264;29;20134;-83
2023/07/05 07:41:28;;;;;;;2.95;1.67;;;;;;;;;;4777228;29;20059;-84
2023/07/05 07:43:59;;;;;;;2.25;1.50;;;15.20;90.60;;;;;;4792159;29;20051;-84
2023/07/05 07:46:26;;;;;;;2.28;1.50;;;15.30;91.00;;;;;;4792135;29;20137;-84
2023/07/05 07:48:55;;;;;;;2.58;1.40;;;15.20;91.90;;;;;;4777218;29;20095;-85
2023/07/05 07:51:26;;;;;;;4.53;2.00;;;15.10;93.50;;;;;;4777446;29;20043;-84
2023/07/05 07:53:52;;;;;;;6.47;2.40;;;14.60;95.70;;;;;;4777568;29;20046;-86
2023/07/05 07:56:21;;;;;;;1.88;1.48;;;14.70;94.30;;;;;;4777183;29;20125;-86
2023/07/05 07:58:53;;;;;;;1.80;0.90;;;14.40;93.00;;;;;;4791890;29;20082;-85
2023/07/05 08:01:28;;;;;;;1.15;0.73;;;14.20;92.20;;;;;;4791931;29;20416;-86
2023/07/05 08:03:56;;;;;;;1.40;0.85;;;13.90;91.80;;;;;;4791921;29;20894;-86
2023/07/05 08:06:28;;;;;;;1.52;0.98;;;;;;;;;;4791905;29;20054;-85
2023/07/05 08:08:54;;;;;;;2.47;1.05;;;;;;;;;;4791990;29;20148;-85
2023/07/05 08:11:20;;;;;;;1.00;0.90;;;13.50;96.60;;;;;;4777008;29;20050;-86
2023/07/05 08:13:48;;;;;;;1.77;0.90;;;;;;;;;;4761902;29;20049;-85
2023/07/05 08:16:14;;;;;;;0.93;0.90;;;;;;;;;;4777558;29;20103;-84
2023/07/05 08:18:40;;;;;;;1.25;1.00;;;;;;;;;;4776009;29;20078;-85
2023/07/05 08:21:07;;;;;;;3.13;0.98;;;;;;;;;;4776591;29;20047;-84
2023/07/05 08:23:33;;;;;;;1.67;0.77;;;;;;;;;;4776740;29;20104;-84
2023/07/05 08:26:01;;;;;;;1.63;0.85;;;12.80;98.60;;;;;;4776514;29;20088;-83
2023/07/05 08:28:28;;;;;;;2.22;0.90;;;12.90;99.40;;;;;;4776772;29;20051;-83
2023/07/05 08:30:55;;;;;;;4.07;1.20;;;;;;;;;;4776836;29;20069;-84
2023/07/05 08:33:26;;;;;;;1.95;0.80;;;;;;;;;;4776474;29;20046;-83
2023/07/05 08:36:04;;;;;;;2.17;1.05;;;;;;;;;;4791584;29;20102;-84
2023/07/05 08:38:31;;;;;;;1.17;1.08;;;;;;;;;;4791211;29;20058;-84
2023/07/05 08:41:20;;;;;;;1.38;0.95;;;12.60;99.90;;;;;;4791186;29;20062;-84
2023/07/05 08:44:27;;;;;;;0.52;0.52;;;12.40;99.90;;;;;;4806311;29;20047;-83
2023/07/05 08:47:15;;;;;;;3.22;0.75;;;12.50;99.90;;;;;;4806149;29;20054;-82
2023/07/05 08:50:00;;;;;;;0.70;0.70;;;;;;;;;;4791043;29;20058;-83
2023/07/05 08:52:42;;;;;;;0.63;0.60;;;12.50;99.90;;;;;;4791020;29;20059;-83
2023/07/05 08:55:11;;;;;;;0.80;0.80;;;;;;;;;;4775941;29;20051;-82
2023/07/05 08:57:56;;;;;;;0.75;0.63;;;;;;;;;;4790849;29;20047;-83
2023/07/05 09:00:37;;;;;;;1.40;1.00;;;12.40;99.90;;;;;;4775905;29;20058;-83
2023/07/05 09:03:08;;;;;;;7.30;1.35;;;;;;;;;;4776066;29;20046;-83
2023/07/05 09:05:44;;;;;;;4.68;1.02;;;12.40;99.90;;;;;;4790701;29;20058;-83
2023/07/05 09:08:48;;;;;;;4.80;1.30;;;12.40;99.90;;;;;;4790785;29;20065;-85
2023/07/05 09:11:46;;;;;;;4.35;1.77;;;12.60;99.90;;;;;;4806942;29;20394;-83
2023/07/05 09:14:36;;;;;;;7.53;1.70;;;12.60;99.90;;;;;;4790557;29;20120;-84
2023/07/05 09:17:02;;;;;;;3.00;1.50;;;;;;;;;;4775914;29;20377;-83
2023/07/05 09:19:51;;;;;;;4.30;1.67;;;12.70;99.90;;;;;;4790594;29;20413;-82
2023/07/05 09:22:23;;;;;;;4.90;1.40;;;;;;;;;;4790607;29;20087;-83
2023/07/05 09:24:49;;;;;;;3.65;1.30;;;;;;;;;;4775577;29;20057;-81
2023/07/05 09:27:26;;;;;;;4.82;1.88;;;13.10;99.90;;;;;;4775515;29;20054;-81
2023/07/05 09:29:59;;;;;;;8.68;1.30;;;13.00;99.90;;;;;;4790360;29;20410;-82
2023/07/05 09:32:32;;;;;;;5.57;0.60;;;13.00;99.90;;;;;;4775929;29;20111;-87
2023/07/05 09:34:59;;;;;;;4.18;1.23;;;;;;;;;;4791935;29;20054;-85
2023/07/05 09:37:28;;;;;;;3.50;1.00;;;;;;;;;;4791587;29;20042;-81
2023/07/05 09:40:23;;;;;;;1.02;0.90;;;13.40;99.90;;;;;;4790337;29;20054;-82
2023/07/05 09:43:02;;;;;;;1.70;1.23;;;13.70;99.90;;;;;;4790420;29;20055;-82
2023/07/05 09:45:28;;;;;;;5.40;1.20;;;13.90;99.90;;;;;;4790341;29;20575;-82
2023/07/05 09:48:00;;;;;;;1.85;1.20;;;14.00;99.90;;;;;;4790371;29;20497;-82
2023/07/05 09:50:26;;;;;;;9.50;2.08;;;13.90;99.90;;;;;;4790339;29;20047;-82
2023/07/05 09:52:58;;;;;;;3.35;1.05;;;14.20;99.90;;;;;;4790532;29;20047;-81
2023/07/05 09:55:27;;;;;;;1.48;1.15;;;14.10;99.90;;;;;;4790286;29;20051;-81
2023/07/05 09:57:53;;;;;;;2.45;1.33;;;;;;;;;;4775616;29;20079;-81
2023/07/05 10:00:34;;;;;;;0.90;0.90;;;13.90;99.90;;;;;;4790394;29;20389;-81
2023/07/05 10:03:06;;;;;;;0.60;0.60;;;;;;;;;;4790328;29;20062;-81
2023/07/05 10:05:32;;;;;;;2.67;0.80;;;;;;;;;;4789897;29;20111;-81
2023/07/05 10:08:02;;;;;;;0.60;0.60;;;14.10;99.90;;;;;;4775367;29;20066;-82
2023/07/05 10:10:34;;;;;;;1.08;0.90;;;13.90;99.90;;;;;;4790551;29;20457;-81
2023/07/05 10:13:24;;;;;;;1.77;1.23;;;14.00;99.90;;;;;;4790431;29;20042;-81
2023/07/05 10:15:51;;;;;;;0.57;0.57;;;;;;;;;;4806012;29;20046;-81
2023/07/05 10:18:30;;;;;;;2.30;0.60;;;14.10;99.90;;;;;;4806166;29;20051;-81
2023/07/05 10:21:18;;;;;;;2.50;0.57;;;14.40;99.90;;;;;;4806275;29;20086;-81
2023/07/05 10:23:45;;;;;;;1.20;0.68;;;;;;;;;;4775111;29;20400;-81
2023/07/05 10:26:11;;;;;;;0.45;0.43;;;14.60;99.40;;;;;;4760056;29;20057;-81
2023/07/05 10:28:40;;;;;;;1.00;0.90;;;;;;;;;;4790032;29;20101;-81
2023/07/05 10:31:27;;;;;;;1.83;0.70;;;14.50;99.70;;;;;;4760171;29;20047;-81
2023/07/05 10:34:07;;;;;;;0.40;0.40;;;;;;;;;;4789785;29;20109;-81
2023/07/05 10:36:33;;;;;;;2.58;0.70;;;14.20;99.90;;;;;;4775074;29;20050;-81
2023/07/05 10:38:59;;;;;;;1.42;0.65;;;14.50;99.90;;;;;;4789953;29;20453;-81
2023/07/05 10:41:33;;;;;;;1.00;0.57;;;14.50;99.90;;;;;;4791441;29;20107;-81
2023/07/05 10:44:04;;;;;;;;;;;14.70;99.20;;;;;;4794820;29;20051;-81
2023/07/05 10:46:31;;;;;;;3.75;0.70;;;14.60;99.50;;;;;;4793392;29;20405;-81
2023/07/05 10:49:03;;;;;;;1.30;0.63;;;14.50;99.30;;;;;;4809790;29;20407;-81
2023/07/05 10:51:33;;;;;;;1.00;0.80;;;14.70;98.90;;;;;;4778320;29;20051;-80
2023/07/05 10:54:11;;;;;;;0.73;0.70;;;14.90;99.90;;;;;;4793307;29;20047;-82
2023/07/05 10:56:38;;;;;;;2.10;0.73;;;14.90;99.90;;;;;;4793200;29;20051;-82
2023/07/05 10:59:26;;;;;;;0.50;0.50;;;15.30;95.00;;;;;;4793014;29;20079;-81
2023/07/05 11:01:56;;;;;;;1.33;0.80;;;15.30;94.50;;;;;;4793346;29;20094;-82
2023/07/05 11:04:29;;;;;;;2.10;0.60;;;15.50;92.90;;;;;;4793194;29;20058;-82
2023/07/05 11:07:00;;;;;;;3.80;1.05;;;15.70;91.40;;;;;;4778571;29;20519;-82
2023/07/05 11:09:28;;;;;;;3.10;1.00;;;;;;;;;;4792957;29;20053;-82
2023/07/05 11:11:59;;;;;;;0.70;0.70;;;16.00;91.10;;;;;;4777862;29;20049;-81
2023/07/05 11:14:29;;;;;;;1.13;1.00;;;15.90;91.00;;;;;;4792795;29;20046;-81
2023/07/05 11:16:56;;;;;;;0.82;0.75;;;;;;;;;;4792981;29;20050;-82
2023/07/05 11:19:29;;;;;;;2.30;1.05;;;16.20;90.80;;;;;;4793085;29;20454;-81
2023/07/05 11:21:55;;;;;;;1.20;1.03;;;;;;;;;;4792549;29;20055;-81
2023/07/05 11:24:31;;;;;;;1.65;0.90;;;;;;;;;;4777851;29;20085;-81
2023/07/05 11:26:57;;;;;;;3.70;1.08;;;;;;;;;;4792353;29;20058;-81
2023/07/05 11:29:32;;;;;;;2.45;0.80;;;16.20;83.30;;;;;;4792735;29;20068;-82
2023/07/05 11:32:05;;;;;;;1.92;1.00;;;16.60;84.10;;;;;;4792428;29;20058;-81
2023/07/05 11:34:41;;;;;;;1.55;1.42;;;16.60;78.50;;;;;;4777425;29;20051;-83
2023/07/05 11:37:09;;;;;;;1.35;1.00;;;16.60;77.80;;;;;;4777500;29;20584;-83
2023/07/05 11:39:49;;;;;;;3.42;0.77;;;16.80;80.40;;;;;;4792208;29;20513;-82
2023/07/05 11:42:15;;;;;;;9.00;1.10;;;;;;;;;;4792462;29;20055;-83
2023/07/05 11:44:46;;;;;;;5.22;1.23;;;16.80;79.30;;;;;;4777413;29;20061;-82
2023/07/05 11:47:12;;;;;;;8.45;1.42;;;;;;;;;;4808484;29;20122;-82
2023/07/05 11:49:45;;;;;;;4.35;1.45;;;;;;;;;;4777252;29;20055;-82
2023/07/05 11:52:31;;;;;;;4.75;1.35;;;17.00;74.70;;;;;;4792256;29;20565;-82
2023/07/05 11:55:11;;;;;;;6.35;1.50;;;16.90;77.10;;;;;;4792112;29;20058;-81
2023/07/05 11:57:57;;;;;;;5.03;1.65;;;17.10;73.90;;;;;;4792199;29;20054;-82
2023/07/05 12:00:44;;;;;;;6.47;1.35;;;16.90;71.50;;;;;;4792447;29;20058;-82
2023/07/05 12:03:12;;;;;;;4.35;2.00;;;16.90;88.50;;;;;;4792256;29;20051;-81
2023/07/05 12:05:39;;;;;;;9.38;2.35;;;16.60;90.90;;;;;;4791807;29;20504;-82
2023/07/05 12:08:16;;;;;;;4.97;1.88;;;16.50;93.10;;;;;;4792050;29;20043;-81
2023/07/05 12:10:52;;;;;;;10.13;2.05;;;16.20;94.00;;;;;;4791655;29;20062;-82
2023/07/05 12:13:20;;;;;;;10.77;2.90;;;15.70;95.90;;;;;;4777059;29;20047;-87
2023/07/05 12:15:47;;;;;;;9.35;2.15;;;;;;;;;;4791708;29;20038;-84
2023/07/05 12:18:16;;;;;;;8.98;2.63;;;15.50;97.70;;;;;;4776797;29;20497;-84
2023/07/05 12:20:44;;;;;;;9.18;1.90;;;15.30;98.50;;;;;;4791463;29;20509;-86
2023/07/05 12:23:16;;;;;;;3.78;1.98;;;15.00;99.70;;;;;;4791848;29;20054;-83
2023/07/05 12:25:49;;;;;;;8.23;2.80;;;14.90;99.90;;;;;;4791414;29;20116;-82
2023/07/05 12:28:19;;;;;;;11.05;2.83;;;14.80;99.90;;;;;;4791907;29;20054;-82
2023/07/05 12:30:45;;;;;;;12.77;2.30;;;;;;;;;;4791792;29;20050;-81
2023/07/05 12:33:28;;;;;;;18.30;2.88;;;14.40;99.90;;;;;;4776614;29;20054;-82
2023/07/05 12:36:20;;;;;;;6.50;2.05;;;14.30;99.90;;;;;;4807974;29;20094;-81
2023/07/05 12:38:50;;;;;;;6.22;1.20;;;14.30;99.90;;;;;;4774154;29;20119;-83
2023/07/05 12:41:25;;;;;;;3.83;1.52;;;14.20;99.90;;;;;;4791218;29;20512;-81
2023/07/05 12:44:07;;;;;;;4.28;1.50;;;14.30;99.90;;;;;;4776466;29;20051;-82
2023/07/05 12:46:34;;;;;;;5.43;2.08;;;14.20;99.90;;;;;;4791248;29;20115;-81
2023/07/05 12:49:23;;;;;;;3.50;1.40;;;14.20;99.90;;;;;;4776516;29;20047;-81
2023/07/05 12:51:54;;;;;;;3.97;1.48;;;13.90;99.90;;;;;;4791250;29;20469;-81
2023/07/05 12:54:20;;;;;;;6.80;2.38;;;;;;;;;;4776263;29;20524;-82
2023/07/05 12:56:47;;;;;;;9.50;1.45;;;;;;;;;;4776229;29;20047;-79
2023/07/05 12:59:29;;;;;;;2.58;1.58;;;13.80;99.90;;;;;;4791131;29;20504;-81
2023/07/05 13:01:56;;;;;;;6.88;1.90;;;;;;;;;;4791084;29;20061;-80
2023/07/05 13:04:23;;;;;;;7.40;3.13;;;13.80;99.90;;;;;;4790439;29;20138;-80
2023/07/05 13:06:52;;;;;;;6.43;2.47;;;13.70;99.90;;;;;;4790958;29;20508;-82
2023/07/05 13:09:36;;;;;;;11.60;2.65;;;13.60;99.90;;;;;;4807327;29;20046;-82
2023/07/05 13:12:03;;;;;;;11.63;2.67;;;;;;;;;;4790876;29;20065;-83
2023/07/05 13:14:32;;;;;;;17.02;2.85;;;13.60;99.90;;;;;;4790630;29;20051;-83
2023/07/05 13:17:12;;;;;;;12.60;2.95;;;13.60;99.90;;;;;;4775909;29;20111;-81
2023/07/05 13:19:54;;;;;;;7.93;2.53;;;13.60;99.90;;;;;;4790765;29;20097;-83
2023/07/05 13:22:29;;;;;;;12.57;3.85;;;13.50;99.90;;;;;;4790679;29;20053;-82
2023/07/05 13:24:57;;;;;;;5.72;2.40;;;13.40;99.90;;;;;;4790525;29;20055;-83
2023/07/05 13:27:29;;;;;;;6.93;2.45;;;13.50;99.90;;;;;;4807187;29;20050;-86
2023/07/05 13:29:55;;;;;;;3.38;2.20;;;;;;;;;;4790518;29;20181;-85
2023/07/05 13:32:37;;;;;;;7.78;2.40;;;13.40;99.90;;;;;;4790558;29;20057;-82
2023/07/05 13:35:03;;;;;;;8.48;2.90;;;13.40;99.90;;;;;;4790472;29;20062;-84
2023/07/05 13:37:29;;;;;;;9.90;2.85;;;13.30;99.90;;;;;;4791252;29;20054;-84
2023/07/05 13:39:59;;;;;;;9.05;3.10;;;13.20;99.90;;;;;;4760879;29;20512;-84
2023/07/05 13:42:26;;;;;;;9.63;2.80;;;;;;;;;;4790398;29;20051;-84
2023/07/05 13:44:53;;;;;;;7.10;2.58;;;;;;;;;;4775590;29;20039;-80
2023/07/05 13:47:19;;;;;;;3.67;2.00;;;;;;;;;;4790164;29;20054;-82
2023/07/05 13:49:45;;;;;;;6.20;2.67;;;;;;;;;;4790507;29;20420;-81
2023/07/05 13:52:17;;;;;;;8.95;3.78;;;;;;;;;;4790124;29;20058;-82
2023/07/05 13:54:45;;;;;;;4.85;2.78;;;;;;;;;;4806942;29;20059;-81
2023/07/05 13:57:18;;;;;;;10.77;2.58;;;13.40;99.90;;;;;;4775556;29;20451;-82
2023/07/05 13:59:45;;;;;;;7.68;3.47;;;13.40;99.90;;;;;;4789991;29;20143;-81
2023/07/05 14:02:27;;;;;;;1.88;1.50;;;13.50;99.90;;;;;;4760532;29;20050;-84
2023/07/05 14:04:53;;;;;;;8.18;2.22;;;;;;;;;;4775182;29;20078;-81
2023/07/05 14:07:20;;;;;;;11.27;2.63;;;;;;;;;;4775472;29;20090;-80